sensor_id;sensor_type;location;lat;lon;timestamp;P1;durP1;ratioP1;P2;durP2;ratioP2
15557;SDS011;7880;50.110;9.372;2023-07-13T14:16:53;5.56923076923077;;;2.3000000000000003;;
15557;SDS011;7880;50.110;9.372;2023-07-13T14:21:55;3.7692307692307705;;;1.8692307692307695;;
15557;SDS011;7880;50.110;9.372;2023-07-13T14:27:00;4.799999999999999;;;2.230769230769231;;
15557;SDS011;7880;50.110;9.372;2023-07-13T14:32:07;7.700000000000002;;;1.9615384615384621;;
15557;SDS011;7880;50.110;9.372;2023-07-13T14:37:17;4.507692307692308;;;1.5;;
15557;SDS011;7880;50.110;9.372;2023-07-13T14:42:38;1.7692307692307692;;;1.0692307692307692;;
15557;SDS011;7880;50.110;9.372;2023-07-13T14:47:24;1.8000000000000005;;;1.169230769230769;;
15557;SDS011;7880;50.110;9.372;2023-07-13T14:52:30;2.969230769230769;;;1.3692307692307695;;
15557;SDS011;7880;50.110;9.372;2023-07-13T14:57:36;2.369230769230769;;;1.1999999999999997;;
15557;SDS011;7880;50.110;9.372;2023-07-13T15:02:41;1.7692307692307692;;;0.9000000000000002;;
15557;SDS011;7880;50.110;9.372;2023-07-13T15:07:46;1.5;;;0.9000000000000002;;
15557;SDS011;7880;50.110;9.372;2023-07-13T15:12:58;2.030769230769231;;;1.1999999999999997;;
15557;SDS011;7880;50.110;9.372;2023-07-13T15:18:00;1.7923076923076922;;;1.0692307692307692;;
15557;SDS011;7880;50.110;9.372;2023-07-13T15:23:04;3.838461538461539;;;0.9000000000000002;;
15557;SDS011;7880;50.110;9.372;2023-07-13T15:28:09;3.438461538461538;;;1.0;;
15557;SDS011;7880;50.110;9.372;2023-07-13T15:33:19;2.161538461538462;;;0.5999999999999999;;
15557;SDS011;7880;50.110;9.372;2023-07-13T15:38:22;3.261538461538461;;;1.0;;
15557;SDS011;7880;50.110;9.372;2023-07-13T15:43:25;3.7307692307692295;;;1.0;;
15557;SDS011;7880;50.110;9.372;2023-07-13T15:48:31;3.4230769230769242;;;0.9307692307692309;;
15557;SDS011;7880;50.110;9.372;2023-07-13T15:53:42;1.8000000000000005;;;0.7;;
15557;SDS011;7880;50.110;9.372;2023-07-13T15:58:49;3.938461538461538;;;1.3000000000000003;;
15557;SDS011;7880;50.110;9.372;2023-07-13T16:03:54;1.8999999999999997;;;1.1999999999999997;;
15557;SDS011;7880;50.110;9.372;2023-07-13T22:23:15;2.269230769230769;;;1.0999999999999999;;
15557;SDS011;7880;50.110;9.372;2023-07-13T22:28:12;1.7307692307692308;;;1.0307692307692307;;
15557;SDS011;7880;50.110;9.372;2023-07-13T22:33:18;1.2923076923076924;;;1.0;;
15557;SDS011;7880;50.110;9.372;2023-07-13T22:38:26;1.5692307692307692;;;1.1999999999999997;;
15557;SDS011;7880;50.110;9.372;2023-07-13T22:43:27;1.5692307692307692;;;1.0999999999999999;;
15557;SDS011;7880;50.110;9.372;2023-07-13T22:48:36;4.06923076923077;;;1.1307692307692305;;
15557;SDS011;7880;50.110;9.372;2023-07-13T22:53:39;4.638461538461538;;;1.4;;
15557;SDS011;7880;50.110;9.372;2023-07-13T22:58:43;1.6307692307692305;;;1.0999999999999999;;
15557;SDS011;7880;50.110;9.372;2023-07-13T23:03:48;2.838461538461538;;;1.0692307692307692;;
15557;SDS011;7880;50.110;9.372;2023-07-13T23:08:54;1.8692307692307695;;;1.0999999999999999;;
15557;SDS011;7880;50.110;9.372;2023-07-13T23:14:11;1.1999999999999997;;;1.0999999999999999;;
15557;SDS011;7880;50.110;9.372;2023-07-13T23:19:15;2.3000000000000003;;;1.169230769230769;;
15557;SDS011;7880;50.110;9.372;2023-07-13T23:24:20;1.7692307692307692;;;1.2692307692307692;;
15557;SDS011;7880;50.110;9.372;2023-07-13T23:29:26;3.838461538461539;;;1.1999999999999997;;
15557;SDS011;7880;50.110;9.372;2023-07-13T23:34:31;2.169230769230769;;;1.0;;
15557;SDS011;7880;50.110;9.372;2023-07-13T23:39:37;2.8692307692307684;;;1.0999999999999999;;
15557;SDS011;7880;50.110;9.372;2023-07-13T23:44:43;1.8999999999999997;;;1.0;;
15557;SDS011;7880;50.110;9.372;2023-07-13T23:49:49;3.0384615384615383;;;1.4;;
15557;SDS011;7880;50.110;9.372;2023-07-13T23:54:55;2.469230769230769;;;0.9000000000000002;;
